createdAt,value
2019-01-17T00:00:35.901Z,1.76
2019-01-17T00:03:25.258Z,1.85
2019-01-17T00:06:13.924Z,2.00
2019-01-17T00:09:08.805Z,2.11
2019-01-17T00:11:51.604Z,2.17
2019-01-17T00:14:36.900Z,2.24
2019-01-17T00:17:20.051Z,2.44
2019-01-17T00:20:16.047Z,2.52
2019-01-17T00:23:11.433Z,2.59
2019-01-17T00:26:20.037Z,2.67
2019-01-17T00:29:15.325Z,2.81
2019-01-17T00:32:00.088Z,3.00
2019-01-17T00:34:55.335Z,3.09
2019-01-17T00:37:33.599Z,3.34
2019-01-17T00:40:12.593Z,3.39
2019-01-17T00:43:02.823Z,3.38
2019-01-17T00:45:52.068Z,3.30
2019-01-17T00:48:48.815Z,3.17
2019-01-17T00:51:50.273Z,3.01
2019-01-17T00:54:51.626Z,2.92
2019-01-17T00:57:40.115Z,2.82
2019-01-17T01:00:34.944Z,2.53
2019-01-17T01:03:26.089Z,2.34
2019-01-17T01:06:15.117Z,1.99
2019-01-17T01:09:04.919Z,1.72
2019-01-17T01:11:58.788Z,1.50
2019-01-17T01:14:47.979Z,1.47
2019-01-17T01:17:48.311Z,1.40
2019-01-17T01:20:53.215Z,1.34
2019-01-17T01:23:46.913Z,1.30
2019-01-17T01:26:42.149Z,1.28
2019-01-17T01:29:41.822Z,1.19
2019-01-17T01:32:29.675Z,1.28
2019-01-17T01:35:24.761Z,1.20
2019-01-17T01:38:05.761Z,1.16
2019-01-17T01:41:01.067Z,1.14
2019-01-17T01:43:44.298Z,1.09
2019-01-17T01:46:38.608Z,0.95
2019-01-17T01:49:46.829Z,0.86
2019-01-17T01:52:32.674Z,0.78
2019-01-17T01:55:03.274Z,0.75
2019-01-17T01:57:33.631Z,0.65
2019-01-17T02:00:04.530Z,0.61
2019-01-17T02:02:35.913Z,0.67
2019-01-17T02:05:07.249Z,0.63
2019-01-17T02:07:37.488Z,0.68
2019-01-17T02:10:08.740Z,0.79
2019-01-17T02:12:39.003Z,1.05
2019-01-17T02:15:09.248Z,1.39
2019-01-17T02:17:39.581Z,1.90
2019-01-17T02:20:10.274Z,2.22
2019-01-17T02:22:42.619Z,2.46
2019-01-17T02:25:14.875Z,2.69
2019-01-17T02:27:45.111Z,2.73
2019-01-17T02:30:16.175Z,3.01
2019-01-17T02:32:46.645Z,3.03
2019-01-17T02:35:16.959Z,2.98
2019-01-17T02:37:47.719Z,2.88
2019-01-17T02:40:18.017Z,2.75
2019-01-17T02:42:48.328Z,2.73
2019-01-17T02:45:18.743Z,2.68
2019-01-17T02:47:48.924Z,2.64
2019-01-17T02:50:19.211Z,2.58
2019-01-17T02:52:49.404Z,2.60
2019-01-17T02:55:19.659Z,2.60
2019-01-17T02:57:49.923Z,2.64
2019-01-17T03:00:20.305Z,2.73
2019-01-17T03:02:50.580Z,2.76
2019-01-17T03:05:20.853Z,2.76
2019-01-17T03:07:51.024Z,2.78
2019-01-17T03:10:21.402Z,2.77
2019-01-17T03:12:52.026Z,2.77
2019-01-17T03:15:22.254Z,2.77
2019-01-17T03:17:52.457Z,2.74
2019-01-17T03:20:22.701Z,2.74
2019-01-17T03:22:52.989Z,2.72
2019-01-17T03:25:23.242Z,2.73
2019-01-17T03:27:53.513Z,2.73
2019-01-17T03:30:23.781Z,2.70
2019-01-17T03:32:54.126Z,2.63
2019-01-17T03:35:24.660Z,2.56
2019-01-17T03:37:54.916Z,2.54
2019-01-17T03:40:25.799Z,2.48
2019-01-17T03:42:56.072Z,2.46
2019-01-17T03:45:26.350Z,2.47
2019-01-17T03:47:56.618Z,2.48
2019-01-17T03:50:27.223Z,2.48
2019-01-17T03:52:57.852Z,2.50
2019-01-17T03:55:28.173Z,2.56
2019-01-17T03:57:58.444Z,2.58
2019-01-17T04:00:28.707Z,2.59
2019-01-17T04:02:59.413Z,2.60
2019-01-17T04:05:30.049Z,2.60
2019-01-17T04:08:00.250Z,2.64
2019-01-17T04:10:31.147Z,2.59
2019-01-17T04:13:01.785Z,2.63
2019-01-17T04:15:32.052Z,2.58
2019-01-17T04:18:02.658Z,2.67
2019-01-17T04:20:32.878Z,2.69
2019-01-17T04:23:03.196Z,2.69
2019-01-17T04:25:33.528Z,2.69
2019-01-17T04:28:03.772Z,2.72
2019-01-17T04:30:34.326Z,2.74
2019-01-17T04:33:04.585Z,2.74
2019-01-17T04:35:34.913Z,2.76
2019-01-17T04:38:06.198Z,2.76
2019-01-17T04:40:36.471Z,2.72
2019-01-17T04:43:06.752Z,2.75
2019-01-17T04:45:36.959Z,2.70
2019-01-17T04:48:07.282Z,2.72
2019-01-17T04:50:37.567Z,2.71
2019-01-17T04:53:07.848Z,2.71
2019-01-17T04:55:38.134Z,2.73
2019-01-17T04:58:08.727Z,2.80
2019-01-17T05:00:38.993Z,2.82
2019-01-17T05:03:09.243Z,2.90
2019-01-17T05:05:39.528Z,2.98
2019-01-17T05:08:10.438Z,2.97
2019-01-17T05:10:42.767Z,2.97
2019-01-17T05:13:13.032Z,2.96
2019-01-17T05:15:43.316Z,2.98
2019-01-17T05:18:13.890Z,3.00
2019-01-17T05:20:44.172Z,3.00
2019-01-17T05:23:14.459Z,3.03
2019-01-17T05:25:44.726Z,2.99
2019-01-17T05:28:14.996Z,3.00
2019-01-17T05:30:45.259Z,2.99
2019-01-17T05:33:15.995Z,2.99
2019-01-17T05:35:46.339Z,2.95
2019-01-17T05:38:16.619Z,2.99
2019-01-17T05:40:47.208Z,3.04
2019-01-17T05:43:17.448Z,3.10
2019-01-17T05:45:47.735Z,3.13
2019-01-17T05:48:18.050Z,3.16
2019-01-17T05:50:48.326Z,3.25
2019-01-17T05:53:18.947Z,3.26
2019-01-17T05:55:49.228Z,3.28
2019-01-17T05:58:19.810Z,3.25
2019-01-17T06:00:50.460Z,3.28
2019-01-17T06:03:20.771Z,3.27
2019-01-17T06:05:51.429Z,3.27
2019-01-17T06:08:21.626Z,3.30
2019-01-17T06:10:52.011Z,3.31
2019-01-17T06:13:22.620Z,3.28
2019-01-17T06:15:53.154Z,3.27
2019-01-17T06:18:23.374Z,3.31
2019-01-17T06:20:53.597Z,3.37
2019-01-17T06:23:24.195Z,3.41
2019-01-17T06:25:54.453Z,3.58
2019-01-17T06:28:24.720Z,3.96
2019-01-17T06:30:54.995Z,4.23
2019-01-17T06:33:25.263Z,4.42
2019-01-17T06:35:55.540Z,4.49
2019-01-17T06:38:26.018Z,4.53
2019-01-17T06:40:56.421Z,4.60
2019-01-17T06:43:26.687Z,4.60
2019-01-17T06:45:56.999Z,4.61
2019-01-17T06:48:27.257Z,4.65
2019-01-17T06:50:57.531Z,4.62
2019-01-17T06:53:27.869Z,4.59
2019-01-17T06:55:58.160Z,4.57
2019-01-17T06:58:28.489Z,4.60
2019-01-17T07:00:58.702Z,4.67
2019-01-17T07:03:29.020Z,4.68
2019-01-17T07:05:59.622Z,4.79
2019-01-17T07:08:31.012Z,4.78
2019-01-17T07:11:01.221Z,4.82
2019-01-17T07:13:31.942Z,4.88
2019-01-17T07:16:02.196Z,4.92
2019-01-17T07:18:32.535Z,4.98
2019-01-17T07:21:02.743Z,5.06
2019-01-17T07:23:33.423Z,5.16
2019-01-17T07:26:03.705Z,5.27
2019-01-17T07:28:34.279Z,5.31
2019-01-17T07:31:04.542Z,5.32
2019-01-17T07:33:34.844Z,5.32
2019-01-17T07:36:05.124Z,5.33
2019-01-17T07:38:35.363Z,5.29
2019-01-17T07:41:05.646Z,5.24
2019-01-17T07:43:35.992Z,5.26
2019-01-17T07:46:06.334Z,5.26
2019-01-17T07:48:36.819Z,5.23
2019-01-17T07:51:07.249Z,5.31
2019-01-17T07:53:37.538Z,5.33
2019-01-17T07:56:10.869Z,5.38
2019-01-17T07:58:43.181Z,5.43
2019-01-17T08:01:15.100Z,5.57
2019-01-17T08:03:45.508Z,5.64
2019-01-17T08:06:16.101Z,5.78
2019-01-17T08:08:46.327Z,5.79
2019-01-17T08:11:16.617Z,5.81
2019-01-17T08:13:46.890Z,5.79
2019-01-17T08:16:17.193Z,5.97
2019-01-17T08:18:47.797Z,5.94
2019-01-17T08:21:18.065Z,6.11
2019-01-17T08:23:48.433Z,6.26
2019-01-17T08:26:18.676Z,6.82
2019-01-17T08:28:48.937Z,6.84
2019-01-17T08:31:19.625Z,7.00
2019-01-17T08:33:49.919Z,7.32
2019-01-17T08:36:20.194Z,7.50
2019-01-17T08:38:50.467Z,7.46
2019-01-17T08:41:20.761Z,7.43
2019-01-17T08:43:51.266Z,7.54
2019-01-17T08:46:21.732Z,7.68
2019-01-17T08:48:52.349Z,7.85
2019-01-17T08:51:22.652Z,7.97
2019-01-17T08:53:52.936Z,8.07
2019-01-17T08:56:23.193Z,8.13
2019-01-17T08:58:53.452Z,8.11
2019-01-17T09:01:23.754Z,8.15
2019-01-17T09:03:54.157Z,8.20
2019-01-17T09:06:24.423Z,8.14
2019-01-17T09:08:56.158Z,8.07
2019-01-17T09:11:26.593Z,8.05
2019-01-17T09:13:56.893Z,7.98
2019-01-17T09:16:27.137Z,7.96
2019-01-17T09:18:57.611Z,7.92
2019-01-17T09:21:27.832Z,7.78
2019-01-17T09:23:58.056Z,7.65
2019-01-17T09:26:28.712Z,7.50
2019-01-17T09:28:58.920Z,7.40
2019-01-17T09:31:29.256Z,7.30
2019-01-17T09:33:59.548Z,7.24
2019-01-17T09:36:30.026Z,7.19
2019-01-17T09:39:00.206Z,7.19
2019-01-17T09:41:30.513Z,7.25
2019-01-17T09:44:00.772Z,7.27
2019-01-17T09:46:31.078Z,7.30
2019-01-17T09:49:01.313Z,7.30
2019-01-17T09:51:31.665Z,7.33
2019-01-17T09:54:02.023Z,7.38
2019-01-17T09:56:32.409Z,7.41
2019-01-17T09:59:02.908Z,7.45
2019-01-17T10:01:34.344Z,7.50
2019-01-17T10:04:04.651Z,7.57
2019-01-17T10:06:34.950Z,7.60
2019-01-17T10:09:07.690Z,7.64
2019-01-17T10:11:38.287Z,7.68
2019-01-17T10:14:08.485Z,7.69
2019-01-17T10:16:51.719Z,7.72
2019-01-17T10:19:58.739Z,7.75
2019-01-17T10:23:13.024Z,7.78
2019-01-17T10:26:42.472Z,7.77
2019-01-17T10:29:58.889Z,7.83
2019-01-17T10:32:50.129Z,7.81
2019-01-17T10:35:33.051Z,7.78
2019-01-17T10:38:39.270Z,7.93
2019-01-17T10:41:41.729Z,7.99
2019-01-17T10:45:07.285Z,7.95
2019-01-17T10:48:13.012Z,8.03
2019-01-17T10:51:09.413Z,8.14
2019-01-17T10:54:02.708Z,8.15
2019-01-17T10:57:16.333Z,8.15
2019-01-17T11:00:45.767Z,8.10
2019-01-17T11:03:59.776Z,8.16
2019-01-17T11:06:56.641Z,8.08
2019-01-17T11:09:51.353Z,8.05
2019-01-17T11:12:58.884Z,8.08
2019-01-17T11:15:54.650Z,8.07
2019-01-17T11:18:47.441Z,8.22
2019-01-17T11:22:03.260Z,8.23
2019-01-17T11:25:26.878Z,8.28
2019-01-17T11:28:29.018Z,8.27
2019-01-17T11:31:39.799Z,8.17
2019-01-17T11:34:53.451Z,8.21
2019-01-17T11:37:54.745Z,8.15
2019-01-17T11:41:17.410Z,8.11
2019-01-17T11:44:52.647Z,8.12
2019-01-17T11:48:03.287Z,8.10
2019-01-17T11:51:29.400Z,8.20
2019-01-17T11:54:19.252Z,8.14
2019-01-17T11:57:37.887Z,8.15
2019-01-17T12:00:29.459Z,8.16
2019-01-17T12:03:49.100Z,8.12
2019-01-17T12:06:19.404Z,8.11
2019-01-17T12:08:49.701Z,8.02
2019-01-17T12:11:19.964Z,8.10
2019-01-17T12:13:50.510Z,8.22
2019-01-17T12:16:20.844Z,8.22
2019-01-17T12:18:51.241Z,8.25
2019-01-17T12:21:21.519Z,8.28
2019-01-17T12:23:51.792Z,8.29
2019-01-17T12:26:22.153Z,8.35
2019-01-17T12:28:52.512Z,8.29
2019-01-17T12:31:22.741Z,8.27
2019-01-17T12:33:53.016Z,8.23
2019-01-17T12:36:23.298Z,8.24
2019-01-17T12:38:53.628Z,8.38
2019-01-17T12:41:24.288Z,8.39
2019-01-17T12:43:55.840Z,8.37
2019-01-17T12:46:28.055Z,8.40
2019-01-17T12:48:58.336Z,8.41
2019-01-17T12:51:28.570Z,8.41
2019-01-17T12:53:58.894Z,8.37
2019-01-17T12:56:30.165Z,8.35
2019-01-17T12:59:00.762Z,8.38
2019-01-17T13:01:31.010Z,8.24
2019-01-17T13:04:01.334Z,8.11
2019-01-17T13:06:31.618Z,7.95
2019-01-17T13:09:01.846Z,7.82
2019-01-17T13:11:32.157Z,7.27
2019-01-17T13:14:03.441Z,5.66
2019-01-17T13:16:34.955Z,5.31
2019-01-17T13:19:07.045Z,5.19
2019-01-17T13:21:38.093Z,5.23
2019-01-17T13:24:08.424Z,5.35
2019-01-17T13:26:38.681Z,5.61
2019-01-17T13:29:09.000Z,5.76
2019-01-17T13:31:39.212Z,5.84
2019-01-17T13:34:09.518Z,5.95
2019-01-17T13:36:40.554Z,6.01
2019-01-17T13:39:10.880Z,6.04
2019-01-17T13:41:41.643Z,6.04
2019-01-17T13:44:12.099Z,6.12
2019-01-17T13:46:42.566Z,6.17
2019-01-17T13:49:12.815Z,6.15
2019-01-17T13:51:43.123Z,6.08
2019-01-17T13:54:13.440Z,5.97
2019-01-17T13:56:44.271Z,5.93
2019-01-17T13:59:14.646Z,5.88
2019-01-17T14:01:44.913Z,5.93
2019-01-17T14:04:15.209Z,5.96
2019-01-17T14:06:46.483Z,5.94
2019-01-17T14:09:16.778Z,5.87
2019-01-17T14:11:47.362Z,5.89
2019-01-17T14:14:17.974Z,5.90
2019-01-17T14:16:48.219Z,5.98
2019-01-17T14:19:18.477Z,6.24
2019-01-17T14:21:48.740Z,6.73
2019-01-17T14:24:19.341Z,7.07
2019-01-17T14:26:49.859Z,8.22
2019-01-17T14:29:20.061Z,11.69
2019-01-17T14:31:50.336Z,14.81
2019-01-17T14:34:20.614Z,16.45
2019-01-17T14:36:50.897Z,15.62
2019-01-17T14:39:21.157Z,15.75
2019-01-17T14:41:51.424Z,14.30
2019-01-17T14:44:22.078Z,11.39
2019-01-17T14:46:52.712Z,9.49
2019-01-17T14:49:23.346Z,8.72
2019-01-17T14:51:53.764Z,8.03
2019-01-17T14:54:24.580Z,7.54
2019-01-17T14:56:54.805Z,7.35
2019-01-17T14:59:25.355Z,7.06
2019-01-17T15:01:56.093Z,6.47
2019-01-17T15:04:26.386Z,5.40
2019-01-17T15:06:56.629Z,5.03
2019-01-17T15:09:27.267Z,4.93
2019-01-17T15:11:57.488Z,4.88
2019-01-17T15:14:27.857Z,4.79
2019-01-17T15:16:58.228Z,4.64
2019-01-17T15:19:28.779Z,4.53
2019-01-17T15:21:58.978Z,4.38
2019-01-17T15:24:29.242Z,4.32
2019-01-17T15:26:59.528Z,4.28
2019-01-17T15:29:29.819Z,4.28
2019-01-17T15:32:00.089Z,4.41
2019-01-17T15:34:30.855Z,4.53
2019-01-17T15:37:01.224Z,4.54
2019-01-17T15:39:31.883Z,4.52
2019-01-17T15:42:02.236Z,4.45
2019-01-17T15:44:32.575Z,4.36
2019-01-17T15:47:02.843Z,4.25
2019-01-17T15:49:33.145Z,4.34
2019-01-17T15:52:03.683Z,4.19
2019-01-17T15:54:33.874Z,4.13
2019-01-17T15:57:04.190Z,4.05
2019-01-17T15:59:34.500Z,4.02
2019-01-17T16:02:05.313Z,4.14
2019-01-17T16:04:35.581Z,4.10
2019-01-17T16:07:05.852Z,4.22
2019-01-17T16:09:36.121Z,4.21
2019-01-17T16:12:06.356Z,4.20
2019-01-17T16:14:36.581Z,4.26
2019-01-17T16:17:06.843Z,4.36
2019-01-17T16:19:37.124Z,4.44
2019-01-17T16:22:07.388Z,4.42
2019-01-17T16:24:37.672Z,4.52
2019-01-17T16:27:07.943Z,4.68
2019-01-17T16:29:38.124Z,4.62
2019-01-17T16:32:08.421Z,4.70
2019-01-17T16:34:38.707Z,4.54
2019-01-17T16:37:10.036Z,4.36
2019-01-17T16:39:40.435Z,4.28
2019-01-17T16:42:11.209Z,4.09
2019-01-17T16:44:41.491Z,4.15
2019-01-17T16:47:11.832Z,4.19
2019-01-17T16:49:42.052Z,4.12
2019-01-17T16:52:12.336Z,4.03
2019-01-17T16:54:42.500Z,4.17
2019-01-17T16:57:12.760Z,4.01
2019-01-17T16:59:43.054Z,4.07
2019-01-17T17:02:13.623Z,4.02
2019-01-17T17:04:43.915Z,3.75
2019-01-17T17:07:15.267Z,3.75
2019-01-17T17:09:45.554Z,3.73
2019-01-17T17:12:15.874Z,3.80
2019-01-17T17:14:46.186Z,3.68
2019-01-17T17:17:16.498Z,3.47
2019-01-17T17:19:46.691Z,3.45
2019-01-17T17:22:17.005Z,3.20
2019-01-17T17:24:47.224Z,2.90
2019-01-17T17:27:17.560Z,2.76
2019-01-17T17:29:47.850Z,2.71
2019-01-17T17:32:19.911Z,2.61
2019-01-17T17:34:50.101Z,2.83
2019-01-17T17:37:20.387Z,3.12
2019-01-17T17:39:51.752Z,3.03
2019-01-17T17:42:22.062Z,2.84
2019-01-17T17:44:52.361Z,2.84
2019-01-17T17:47:22.606Z,2.97
2019-01-17T17:49:53.220Z,2.95
2019-01-17T17:52:23.467Z,2.90
2019-01-17T17:54:55.670Z,2.97
2019-01-17T17:57:25.956Z,2.90
2019-01-17T17:59:56.191Z,2.94
2019-01-17T18:02:34.690Z,3.27
2019-01-17T18:05:06.704Z,3.31
2019-01-17T18:07:36.925Z,3.39
2019-01-17T18:10:09.451Z,3.43
2019-01-17T18:12:39.884Z,3.37
2019-01-17T18:15:11.703Z,3.25
2019-01-17T18:17:42.311Z,3.17
2019-01-17T18:20:13.546Z,3.27
2019-01-17T18:22:44.952Z,3.24
2019-01-17T18:25:16.451Z,3.31
2019-01-17T18:27:47.131Z,3.30
2019-01-17T18:30:19.779Z,3.20
2019-01-17T18:32:50.382Z,3.02
2019-01-17T18:35:20.962Z,3.07
2019-01-17T18:37:51.220Z,3.07
2019-01-17T18:40:21.908Z,3.31
2019-01-17T18:42:52.403Z,3.31
2019-01-17T18:45:23.601Z,3.38
2019-01-17T18:47:54.160Z,3.33
2019-01-17T18:50:27.158Z,3.54
2019-01-17T18:52:57.577Z,3.74
2019-01-17T18:55:27.804Z,3.54
2019-01-17T18:57:58.164Z,3.62
2019-01-17T19:00:30.659Z,3.72
2019-01-17T19:03:01.218Z,3.47
2019-01-17T19:05:32.172Z,3.21
2019-01-17T19:08:02.403Z,3.20
2019-01-17T19:10:32.877Z,2.99
2019-01-17T19:13:03.139Z,2.89
2019-01-17T19:15:34.477Z,2.65
2019-01-17T19:18:07.369Z,2.47
2019-01-17T19:20:38.133Z,2.40
2019-01-17T19:23:08.345Z,2.23
2019-01-17T19:25:38.746Z,2.02
2019-01-17T19:28:09.440Z,2.24
2019-01-17T19:30:40.360Z,2.18
2019-01-17T19:33:10.676Z,2.17
2019-01-17T19:35:40.894Z,2.06
2019-01-17T19:38:12.847Z,1.95
2019-01-17T19:40:43.415Z,1.79
2019-01-17T19:43:13.891Z,1.67
2019-01-17T19:45:57.183Z,1.48
2019-01-17T19:48:27.458Z,1.39
2019-01-17T19:50:57.699Z,1.22
2019-01-17T19:53:29.308Z,1.11
2019-01-17T19:56:00.722Z,1.05
2019-01-17T19:58:31.083Z,1.04
2019-01-17T20:01:01.352Z,1.13
2019-01-17T20:03:32.122Z,1.23
2019-01-17T20:06:02.434Z,1.46
2019-01-17T20:08:32.732Z,1.52
2019-01-17T20:11:02.944Z,1.65
2019-01-17T20:13:33.303Z,1.79
2019-01-17T20:16:03.777Z,1.90
2019-01-17T20:18:34.582Z,1.95
2019-01-17T20:21:04.991Z,1.96
2019-01-17T20:23:35.322Z,1.90
2019-01-17T20:26:06.196Z,1.90
2019-01-17T20:28:36.474Z,1.85
2019-01-17T20:31:07.698Z,1.84
2019-01-17T20:33:38.043Z,1.87
2019-01-17T20:36:08.996Z,1.87
2019-01-17T20:38:39.311Z,1.88
2019-01-17T20:41:09.577Z,1.89
2019-01-17T20:43:40.196Z,1.90
2019-01-17T20:46:10.443Z,1.89
2019-01-17T20:48:40.714Z,1.88
2019-01-17T20:51:10.981Z,1.87
2019-01-17T20:53:41.256Z,1.90
2019-01-17T20:56:11.550Z,1.90
2019-01-17T20:58:42.844Z,1.93
2019-01-17T21:01:36.337Z,1.96
2019-01-17T21:04:08.221Z,2.09
2019-01-17T21:06:38.452Z,2.25
2019-01-17T21:09:11.399Z,2.51
2019-01-17T21:11:41.648Z,2.89
2019-01-17T21:14:13.118Z,3.14
2019-01-17T21:16:43.459Z,3.28
2019-01-17T21:19:13.674Z,3.18
2019-01-17T21:21:45.051Z,3.11
2019-01-17T21:24:15.537Z,3.05
2019-01-17T21:26:46.293Z,3.09
2019-01-17T21:29:19.697Z,3.14
2019-01-17T21:31:49.976Z,3.32
2019-01-17T21:34:20.295Z,3.45
2019-01-17T21:36:51.962Z,3.54
2019-01-17T21:39:22.257Z,3.75
2019-01-17T21:41:52.455Z,3.82
2019-01-17T21:44:22.779Z,3.98
2019-01-17T21:46:53.065Z,4.04
2019-01-17T21:49:23.350Z,4.11
2019-01-17T21:51:55.084Z,4.18
2019-01-17T21:54:25.687Z,4.17
2019-01-17T21:56:55.998Z,4.12
2019-01-17T21:59:26.289Z,4.08
2019-01-17T22:01:56.542Z,4.17
2019-01-17T22:04:26.824Z,4.21
2019-01-17T22:06:57.072Z,4.03
2019-01-17T22:09:27.683Z,3.83
2019-01-17T22:11:57.949Z,3.64
2019-01-17T22:14:28.151Z,3.44
2019-01-17T22:16:58.544Z,3.30
2019-01-17T22:19:29.996Z,3.16
2019-01-17T22:22:00.714Z,2.90
2019-01-17T22:24:30.985Z,2.77
2019-01-17T22:27:01.267Z,2.64
2019-01-17T22:29:32.680Z,2.57
2019-01-17T22:32:02.947Z,2.48
2019-01-17T22:34:33.601Z,2.39
2019-01-17T22:37:03.799Z,2.30
2019-01-17T22:39:34.388Z,2.21
2019-01-17T22:42:05.059Z,2.11
2019-01-17T22:44:35.608Z,2.11
2019-01-17T22:47:05.918Z,2.10
2019-01-17T22:49:36.196Z,2.11
2019-01-17T22:52:06.448Z,2.13
2019-01-17T22:54:36.653Z,2.09
2019-01-17T22:57:06.887Z,2.14
2019-01-17T22:59:37.538Z,2.13
2019-01-17T23:02:07.987Z,2.09
2019-01-17T23:04:38.261Z,2.03
2019-01-17T23:07:08.574Z,1.97
2019-01-17T23:09:38.818Z,1.93
2019-01-17T23:12:09.153Z,1.86
2019-01-17T23:14:39.356Z,1.86
2019-01-17T23:17:09.705Z,1.84
2019-01-17T23:19:40.020Z,1.80
2019-01-17T23:22:10.342Z,1.84
2019-01-17T23:24:40.600Z,1.83
2019-01-17T23:27:10.815Z,1.79
2019-01-17T23:29:41.140Z,1.76
2019-01-17T23:32:11.416Z,1.71
2019-01-17T23:34:41.673Z,1.72
2019-01-17T23:37:11.877Z,1.74
2019-01-17T23:39:42.103Z,1.65
2019-01-17T23:42:12.584Z,1.66
2019-01-17T23:44:42.842Z,1.67
2019-01-17T23:47:13.169Z,1.68
2019-01-17T23:49:44.955Z,1.69
2019-01-17T23:52:24.008Z,1.67
2019-01-17T23:54:55.198Z,1.66
2019-01-17T23:57:31.259Z,1.67
